sensor_id;sensor_type;location;lat;lon;timestamp;pressure;altitude;pressure_sealevel;temperature;humidity
77159;BME280;66129;45.890;13.714;2023-06-22T16:37:21;100999.28;;;32.67;38.73
77159;BME280;66129;45.890;13.714;2023-06-22T16:39:49;101003.44;;;32.57;38.54
77159;BME280;66129;45.890;13.714;2023-06-22T16:42:17;101009.44;;;32.61;36.95
77159;BME280;66129;45.890;13.714;2023-06-22T16:44:43;100990.84;;;32.61;37.14
77159;BME280;66129;45.890;13.714;2023-06-22T16:47:09;101003.03;;;32.51;36.39
77159;BME280;66129;45.890;13.714;2023-06-22T16:49:34;100993.88;;;32.42;36.72
77159;BME280;66129;45.890;13.714;2023-06-22T16:52:03;101007.69;;;32.47;37.11
77159;BME280;66129;45.890;13.714;2023-06-22T16:54:29;100983.09;;;32.31;37.83
77159;BME280;66129;45.890;13.714;2023-06-22T16:56:55;100993.94;;;32.41;37.70
77159;BME280;66129;45.890;13.714;2023-06-22T16:59:23;100972.59;;;32.30;39.48
77159;BME280;66129;45.890;13.714;2023-06-22T17:01:54;101002.19;;;32.50;41.87
77159;BME280;66129;45.890;13.714;2023-06-22T17:04:24;100991.38;;;32.53;43.32
77159;BME280;66129;45.890;13.714;2023-06-22T17:06:58;100980.00;;;32.51;42.71
77159;BME280;66129;45.890;13.714;2023-06-22T17:09:26;100989.75;;;32.51;43.51
77159;BME280;66129;45.890;13.714;2023-06-22T17:11:55;100975.13;;;32.31;46.67
77159;BME280;66129;45.890;13.714;2023-06-22T17:14:21;100997.09;;;32.21;47.55
77159;BME280;66129;45.890;13.714;2023-06-22T17:16:48;100996.19;;;31.94;50.40
77159;BME280;66129;45.890;13.714;2023-06-22T17:19:15;100989.72;;;31.58;53.46
77159;BME280;66129;45.890;13.714;2023-06-22T17:21:41;100993.31;;;31.29;50.16
77159;BME280;66129;45.890;13.714;2023-06-22T17:24:07;100995.88;;;31.16;51.68
77159;BME280;66129;45.890;13.714;2023-06-22T17:26:32;100978.28;;;30.86;55.09
77159;BME280;66129;45.890;13.714;2023-06-22T17:28:58;101000.72;;;30.80;56.41
77159;BME280;66129;45.890;13.714;2023-06-22T17:31:52;100991.75;;;30.54;55.99
77159;BME280;66129;45.890;13.714;2023-06-22T17:34:20;100992.06;;;30.48;55.18
77159;BME280;66129;45.890;13.714;2023-06-22T17:36:49;100995.00;;;30.43;57.12
77159;BME280;66129;45.890;13.714;2023-06-22T17:39:19;100980.28;;;30.24;55.73
77159;BME280;66129;45.890;13.714;2023-06-22T17:41:46;100987.50;;;30.20;55.36
77159;BME280;66129;45.890;13.714;2023-06-22T17:44:13;101008.19;;;29.98;54.94
77159;BME280;66129;45.890;13.714;2023-06-22T17:46:42;100997.25;;;29.73;55.89
77159;BME280;66129;45.890;13.714;2023-06-22T17:49:09;100984.19;;;29.55;57.01
77159;BME280;66129;45.890;13.714;2023-06-22T17:51:36;100960.59;;;29.35;57.10
77159;BME280;66129;45.890;13.714;2023-06-22T17:54:04;100991.00;;;29.44;56.36
77159;BME280;66129;45.890;13.714;2023-06-22T17:56:29;100997.97;;;29.28;57.84
77159;BME280;66129;45.890;13.714;2023-06-22T17:58:55;100973.28;;;28.96;58.19
77159;BME280;66129;45.890;13.714;2023-06-22T18:04:00;100984.97;;;29.08;57.85
77159;BME280;66129;45.890;13.714;2023-06-22T18:06:27;101002.91;;;29.18;57.49
77159;BME280;66129;45.890;13.714;2023-06-22T18:09:03;100997.09;;;29.12;58.48
77159;BME280;66129;45.890;13.714;2023-06-22T18:11:40;100996.28;;;28.94;59.37
77159;BME280;66129;45.890;13.714;2023-06-22T18:14:08;100983.59;;;28.67;60.92
77159;BME280;66129;45.890;13.714;2023-06-22T18:16:34;100983.91;;;28.44;61.77
77159;BME280;66129;45.890;13.714;2023-06-22T18:19:03;100988.47;;;28.40;62.13
77159;BME280;66129;45.890;13.714;2023-06-22T18:21:29;100990.25;;;28.40;63.37
77159;BME280;66129;45.890;13.714;2023-06-22T18:23:55;100984.00;;;28.24;64.74
77159;BME280;66129;45.890;13.714;2023-06-22T18:26:23;100998.66;;;28.13;61.31
77159;BME280;66129;45.890;13.714;2023-06-22T18:28:53;100997.13;;;28.07;59.41
77159;BME280;66129;45.890;13.714;2023-06-22T18:31:20;100973.09;;;27.96;62.42
77159;BME280;66129;45.890;13.714;2023-06-22T18:33:50;100999.88;;;28.06;64.57
77159;BME280;66129;45.890;13.714;2023-06-22T18:36:19;100983.38;;;27.84;58.71
77159;BME280;66129;45.890;13.714;2023-06-22T18:38:47;100985.38;;;27.79;63.73
77159;BME280;66129;45.890;13.714;2023-06-22T18:41:22;100987.97;;;27.42;63.93
77159;BME280;66129;45.890;13.714;2023-06-22T18:43:51;100989.84;;;26.80;65.05
77159;BME280;66129;45.890;13.714;2023-06-22T18:46:37;101000.41;;;26.59;65.63
77159;BME280;66129;45.890;13.714;2023-06-22T18:49:15;100984.47;;;26.63;64.45
77159;BME280;66129;45.890;13.714;2023-06-22T18:54:39;100991.41;;;26.44;65.57
77159;BME280;66129;45.890;13.714;2023-06-22T19:02:46;101003.72;;;26.42;66.73
77159;BME280;66129;45.890;13.714;2023-06-22T19:10:22;101001.53;;;26.32;66.84
77159;BME280;66129;45.890;13.714;2023-06-22T19:12:52;100988.84;;;26.21;69.12
77159;BME280;66129;45.890;13.714;2023-06-22T19:15:19;100979.44;;;26.16;66.57
77159;BME280;66129;45.890;13.714;2023-06-22T19:17:48;100997.94;;;26.13;66.58
77159;BME280;66129;45.890;13.714;2023-06-22T19:20:18;101007.19;;;26.01;65.54
77159;BME280;66129;45.890;13.714;2023-06-22T19:22:45;101011.25;;;25.87;68.03
77159;BME280;66129;45.890;13.714;2023-06-22T19:25:22;101012.22;;;25.62;68.39
77159;BME280;66129;45.890;13.714;2023-06-22T19:27:49;101015.66;;;25.41;69.62
77159;BME280;66129;45.890;13.714;2023-06-22T19:30:16;101020.59;;;25.25;70.41
77159;BME280;66129;45.890;13.714;2023-06-22T19:32:43;101014.03;;;25.14;70.18
77159;BME280;66129;45.890;13.714;2023-06-22T19:35:09;101013.81;;;24.94;69.38
77159;BME280;66129;45.890;13.714;2023-06-22T19:37:35;101026.22;;;24.89;69.22
77159;BME280;66129;45.890;13.714;2023-06-22T19:40:01;101019.63;;;24.79;69.71
77159;BME280;66129;45.890;13.714;2023-06-22T19:42:26;101024.59;;;24.86;70.00
77159;BME280;66129;45.890;13.714;2023-06-22T19:44:52;101019.88;;;24.96;69.66
77159;BME280;66129;45.890;13.714;2023-06-22T19:47:20;101036.28;;;25.02;68.56
77159;BME280;66129;45.890;13.714;2023-06-22T19:49:46;101031.88;;;25.03;69.02
77159;BME280;66129;45.890;13.714;2023-06-22T19:52:11;101023.94;;;25.04;68.62
77159;BME280;66129;45.890;13.714;2023-06-22T19:54:40;101044.63;;;25.13;68.38
77159;BME280;66129;45.890;13.714;2023-06-22T19:57:06;101029.88;;;25.09;67.87
77159;BME280;66129;45.890;13.714;2023-06-22T19:59:31;101054.66;;;25.02;69.08
77159;BME280;66129;45.890;13.714;2023-06-22T20:01:57;101033.56;;;24.55;70.46
77159;BME280;66129;45.890;13.714;2023-06-22T20:04:24;101041.56;;;24.23;71.38
77159;BME280;66129;45.890;13.714;2023-06-22T20:07:06;101046.53;;;24.03;72.29
77159;BME280;66129;45.890;13.714;2023-06-22T20:09:32;101066.16;;;23.90;73.09
77159;BME280;66129;45.890;13.714;2023-06-22T20:11:59;101063.63;;;23.87;73.49
77159;BME280;66129;45.890;13.714;2023-06-22T20:14:33;101072.56;;;23.80;78.14
77159;BME280;66129;45.890;13.714;2023-06-22T20:16:58;101067.91;;;23.90;74.57
77159;BME280;66129;45.890;13.714;2023-06-22T20:19:37;101043.69;;;23.83;72.47
77159;BME280;66129;45.890;13.714;2023-06-22T20:22:06;101038.19;;;23.62;72.70
77159;BME280;66129;45.890;13.714;2023-06-22T20:24:32;101044.53;;;23.54;74.59
77159;BME280;66129;45.890;13.714;2023-06-22T20:26:59;101064.28;;;23.95;73.28
77159;BME280;66129;45.890;13.714;2023-06-22T20:29:26;101070.72;;;24.13;71.89
77159;BME280;66129;45.890;13.714;2023-06-22T20:32:21;101038.91;;;23.97;72.19
77159;BME280;66129;45.890;13.714;2023-06-22T20:34:46;101043.56;;;24.15;71.02
77159;BME280;66129;45.890;13.714;2023-06-22T20:37:14;101041.91;;;24.13;71.22
77159;BME280;66129;45.890;13.714;2023-06-22T20:39:40;101033.94;;;23.88;71.79
77159;BME280;66129;45.890;13.714;2023-06-22T20:42:06;101038.59;;;23.77;73.19
77159;BME280;66129;45.890;13.714;2023-06-22T20:44:34;101040.38;;;23.75;73.30
77159;BME280;66129;45.890;13.714;2023-06-22T20:47:00;101061.19;;;23.81;73.04
77159;BME280;66129;45.890;13.714;2023-06-22T20:49:25;101064.69;;;23.82;72.45
77159;BME280;66129;45.890;13.714;2023-06-22T20:51:52;101061.34;;;23.75;71.98
77159;BME280;66129;45.890;13.714;2023-06-22T20:54:18;101055.34;;;23.72;72.63
77159;BME280;66129;45.890;13.714;2023-06-22T20:56:44;101055.34;;;23.72;72.75
77159;BME280;66129;45.890;13.714;2023-06-22T20:59:10;101052.06;;;23.65;72.95
77159;BME280;66129;45.890;13.714;2023-06-22T21:01:35;101037.50;;;23.56;72.98
77159;BME280;66129;45.890;13.714;2023-06-22T21:04:01;101040.34;;;23.48;73.84
77159;BME280;66129;45.890;13.714;2023-06-22T21:06:27;101030.31;;;23.33;74.88
77159;BME280;66129;45.890;13.714;2023-06-22T21:08:53;101020.66;;;23.35;75.18
77159;BME280;66129;45.890;13.714;2023-06-22T21:11:19;101031.38;;;23.26;76.49
77159;BME280;66129;45.890;13.714;2023-06-22T21:13:44;101020.56;;;23.08;76.95
77159;BME280;66129;45.890;13.714;2023-06-22T21:16:10;101015.09;;;22.83;78.30
77159;BME280;66129;45.890;13.714;2023-06-22T21:18:35;101023.38;;;22.67;79.57
77159;BME280;66129;45.890;13.714;2023-06-22T21:21:01;101008.88;;;22.54;80.12
77159;BME280;66129;45.890;13.714;2023-06-22T21:23:26;101012.06;;;22.30;82.69
77159;BME280;66129;45.890;13.714;2023-06-22T21:25:51;100999.97;;;22.26;83.96
77159;BME280;66129;45.890;13.714;2023-06-22T21:28:17;100999.38;;;22.51;83.25
77159;BME280;66129;45.890;13.714;2023-06-22T21:30:43;101010.66;;;22.52;83.10
77159;BME280;66129;45.890;13.714;2023-06-22T21:33:09;100994.41;;;22.41;83.27
77159;BME280;66129;45.890;13.714;2023-06-22T21:35:34;100985.09;;;22.30;82.85
77159;BME280;66129;45.890;13.714;2023-06-22T21:38:00;100972.66;;;22.41;83.05
77159;BME280;66129;45.890;13.714;2023-06-22T21:40:26;100971.81;;;22.40;82.62
77159;BME280;66129;45.890;13.714;2023-06-22T21:42:51;100975.38;;;22.36;82.83
77159;BME280;66129;45.890;13.714;2023-06-22T21:45:17;100982.31;;;22.37;82.32
77159;BME280;66129;45.890;13.714;2023-06-22T21:47:42;100994.66;;;22.31;82.71
77159;BME280;66129;45.890;13.714;2023-06-22T21:50:08;101000.44;;;22.07;84.59
77159;BME280;66129;45.890;13.714;2023-06-22T21:52:34;100987.50;;;22.02;84.28
77159;BME280;66129;45.890;13.714;2023-06-22T21:54:59;100975.88;;;22.15;82.82
77159;BME280;66129;45.890;13.714;2023-06-22T21:57:26;100972.94;;;22.27;82.10
77159;BME280;66129;45.890;13.714;2023-06-22T21:59:55;100974.59;;;22.33;81.89
77159;BME280;66129;45.890;13.714;2023-06-22T22:02:21;100988.63;;;22.27;82.13
77159;BME280;66129;45.890;13.714;2023-06-22T22:04:46;100997.06;;;22.03;83.43
77159;BME280;66129;45.890;13.714;2023-06-22T22:07:12;100966.09;;;21.88;83.55
77159;BME280;66129;45.890;13.714;2023-06-22T22:09:37;100963.56;;;21.85;84.18
77159;BME280;66129;45.890;13.714;2023-06-22T22:12:03;100964.31;;;21.89;83.79
77159;BME280;66129;45.890;13.714;2023-06-22T22:14:28;100961.00;;;21.82;84.03
77159;BME280;66129;45.890;13.714;2023-06-22T22:16:55;100958.66;;;21.72;84.28
77159;BME280;66129;45.890;13.714;2023-06-22T22:19:20;100960.25;;;21.76;83.97
77159;BME280;66129;45.890;13.714;2023-06-22T22:21:46;100969.03;;;21.73;85.14
77159;BME280;66129;45.890;13.714;2023-06-22T22:24:12;100969.09;;;21.72;85.21
77159;BME280;66129;45.890;13.714;2023-06-22T22:26:38;100947.59;;;21.59;85.43
77159;BME280;66129;45.890;13.714;2023-06-22T22:29:04;100944.72;;;21.71;84.68
77159;BME280;66129;45.890;13.714;2023-06-22T22:31:30;100924.59;;;21.76;83.48
77159;BME280;66129;45.890;13.714;2023-06-22T22:34:02;100937.06;;;22.00;82.12
77159;BME280;66129;45.890;13.714;2023-06-22T22:36:28;100942.00;;;22.12;82.66
77159;BME280;66129;45.890;13.714;2023-06-22T22:38:53;100930.94;;;22.01;82.73
77159;BME280;66129;45.890;13.714;2023-06-22T22:41:18;100943.56;;;21.84;83.91
77159;BME280;66129;45.890;13.714;2023-06-22T22:43:44;100934.09;;;21.79;84.03
77159;BME280;66129;45.890;13.714;2023-06-22T22:46:09;100931.34;;;21.86;83.45
77159;BME280;66129;45.890;13.714;2023-06-22T22:48:35;100936.63;;;21.83;84.02
77159;BME280;66129;45.890;13.714;2023-06-22T22:51:01;100949.03;;;21.72;85.34
77159;BME280;66129;45.890;13.714;2023-06-22T22:53:30;100938.06;;;21.58;85.67
77159;BME280;66129;45.890;13.714;2023-06-22T22:55:56;100921.88;;;21.41;86.13
77159;BME280;66129;45.890;13.714;2023-06-22T22:58:22;100933.38;;;21.33;86.62
77159;BME280;66129;45.890;13.714;2023-06-22T23:00:48;100947.19;;;21.38;87.10
77159;BME280;66129;45.890;13.714;2023-06-22T23:03:13;100955.78;;;21.43;86.80
77159;BME280;66129;45.890;13.714;2023-06-22T23:05:39;100948.13;;;21.34;86.21
77159;BME280;66129;45.890;13.714;2023-06-22T23:08:04;100944.59;;;21.36;85.93
77159;BME280;66129;45.890;13.714;2023-06-22T23:10:31;100947.31;;;21.32;86.74
77159;BME280;66129;45.890;13.714;2023-06-22T23:12:56;100955.09;;;21.33;86.88
77159;BME280;66129;45.890;13.714;2023-06-22T23:15:23;100943.97;;;21.26;87.40
77159;BME280;66129;45.890;13.714;2023-06-22T23:17:49;100942.88;;;21.35;86.83
77159;BME280;66129;45.890;13.714;2023-06-22T23:20:16;100952.63;;;21.28;87.24
77159;BME280;66129;45.890;13.714;2023-06-22T23:22:44;100950.16;;;21.22;87.39
77159;BME280;66129;45.890;13.714;2023-06-22T23:25:09;100946.53;;;21.29;87.89
77159;BME280;66129;45.890;13.714;2023-06-22T23:27:38;100954.41;;;21.26;87.73
77159;BME280;66129;45.890;13.714;2023-06-22T23:30:04;100952.00;;;21.17;88.21
77159;BME280;66129;45.890;13.714;2023-06-22T23:32:34;100950.09;;;21.25;88.05
77159;BME280;66129;45.890;13.714;2023-06-22T23:34:59;100936.94;;;21.29;87.33
77159;BME280;66129;45.890;13.714;2023-06-22T23:37:27;100944.53;;;21.39;87.38
77159;BME280;66129;45.890;13.714;2023-06-22T23:39:53;100925.25;;;21.46;85.77
77159;BME280;66129;45.890;13.714;2023-06-22T23:42:18;100923.59;;;21.42;85.68
77159;BME280;66129;45.890;13.714;2023-06-22T23:44:43;100940.13;;;21.43;86.14
77159;BME280;66129;45.890;13.714;2023-06-22T23:47:09;100930.66;;;21.37;85.61
77159;BME280;66129;45.890;13.714;2023-06-22T23:49:34;100923.06;;;21.29;86.11
77159;BME280;66129;45.890;13.714;2023-06-22T23:52:01;100932.50;;;21.32;86.00
77159;BME280;66129;45.890;13.714;2023-06-22T23:54:26;100934.50;;;21.22;87.20
77159;BME280;66129;45.890;13.714;2023-06-22T23:56:52;100946.88;;;21.12;87.84
77159;BME280;66129;45.890;13.714;2023-06-22T23:59:18;100930.56;;;21.01;88.53
